Startpagina
METAR-TAF:

METAR-TAF

Vliegvelden :

Luchthaven Svalbard Longyear

Longyearbyen, Noorwegen

breedte: 78-15N, lengte: 015-28E, hoogte: 2 m

Actueel weer

Dit bericht is 13 minuten geleden gemaakt, om 20:50 UTC
Wind 3 kt uit het noordnoordwesten
Temperatuur 0°C
Vochtigheid 74%
Druk 1010 hPa
Zicht 10 km of meer
Weinig wolken op 2800 ft
Gebroken wolken op 8000 ft

METAR: ENSB 222050Z 33003KT 9999 FEW028 BKN080 00/M04 Q1010 RMK WIND 1400FT 23003KT

Tijdstip: 23:03 (21:03 UTC)

Verwachting

Verwachting geldig van 22 om 18 UTC tot 23 om 18 UTC
Wind 8 kt uit variabele richting
Zicht 10 km of meer
Weinig wolken op 1500 ft
Gebroken wolken op 3000 ft
Wijzigt naar
van 23 om 03 UTC tot 23 om 06 UTC
Wind 10 kt uit het westzuidwesten

TAF: ENSB 2218/2318 VRB08KT 9999 FEW015 BKN030 BECMG 2303/2306 25010KT

Waarnemingen en weersverwachtingen van meer dan 4000 vliegvelden (METAR en TAF).

De beschikbare stations zijn de gele en rode punten op de kaart.

Ga met uw muis naar het station om de naam te zien.

Klik dan om waarnemingen en weersverwachtingen te zien.

kaart wijzigen: klik op de groene knoppen met een zwart kruis om in te zoomen, op de groene knop met een streepje om uit te zoomen of op de groene pijlen voor aangrenzende kaarten.


METAR-TAF: